Airfield :
LOGIN :

Register | Disclaimer

   EN    FR    IT 

 










Legend :    VFR   Marginal VFR   IFR   Intensive IFR   Very Intensive IFR
Visi :
Ceiling :
>= 8 km
>= 3000ft
5 to 8 km
1000 to 3000 ft
1500m to 5 km
500 to 1000 ft
800 to 1500m
200 to 500 ft
< 800m
< 200 ft
Symbols :   Thunderstorms  Fog  Heavy snow  Heavy precipitations  Wind > 20 kt
SIGMETs :     Misc.  Thunderstorms  Icing  Turbulence  Mountain Waves  Volcanic Ashes






- Airport Elevation : 489 ft
- IATA code : GDN


EPGD - Gdansk

CURRENT METAR :
  • 170400Z VRB01KT 9999 0500W PRFG NSC 07/06 Q1003

EXPIRED METARs :
  • 170330Z VRB01KT 6000 0300W PRFG NSC 06/05 Q1002
  • 170300Z VRB01KT 6000 0300W PRFG NSC 07/07 Q1002
  • 170230Z 17002KT 9999 0900W PRFG NSC 07/07 Q1002
  • 170200Z 17002KT 9999 0800W PRFG NSC 07/07 Q1002
  • 170130Z 20002KT 9999 0600W PRFG NSC 07/07 Q1002

TAF AMD TAF EPGD
Valid from the 17 at 00:00 until the 18 at 00:00 UTC


170005Z 1700/1724 VRB04KT 7000 SCT040
TEMPO 1700/1705 3000 BR
PROB40
TEMPO 1700/1704 0900 FG
PROB30
TEMPO 1700/1704 0400 FG BKN002
TEMPO 1711/1718 VRB15G25KT 2000 TSRA BKN012 BKN025CB
TEMPO 1718/1724 3000 RA BR BKN007 BKN012



MET'MAP, your aeronautical weather chart ! - Copyright ORBIFLY December 2007 - Disclaimer

ORBIFLY MET'MAP TEAM :

Programming & Development : Alexandra Zaïnal
Concept & original design : Baudouin d'Aumeries
Assistance for programming : Marc-Olivier Méhu
Technical & hardware support : Manuel Goepfert

Contact : metmap@orbifly.com




SOURCES & CREDITS :

   NOAA